createdAt,value
2019-06-15T00:02:25.937Z,14.00
2019-06-15T00:04:54.318Z,15.30
2019-06-15T00:07:22.714Z,13.67
2019-06-15T00:09:51.068Z,15.53
2019-06-15T00:12:19.455Z,15.23
2019-06-15T00:14:48.018Z,13.93
2019-06-15T00:17:16.404Z,13.87
2019-06-15T00:19:44.757Z,14.90
2019-06-15T00:22:13.151Z,16.53
2019-06-15T00:24:42.602Z,15.80
2019-06-15T00:27:11.176Z,14.70
2019-06-15T00:29:39.864Z,14.20
2019-06-15T00:32:09.837Z,15.67
2019-06-15T00:34:38.912Z,15.60
2019-06-15T00:37:07.781Z,15.60
2019-06-15T00:39:36.358Z,14.57
2019-06-15T00:42:06.531Z,17.20
2019-06-15T00:44:35.094Z,14.20
2019-06-15T00:47:03.664Z,14.27
2019-06-15T00:49:33.969Z,15.47
2019-06-15T00:52:03.847Z,15.93
2019-06-15T00:54:33.333Z,14.57
2019-06-15T00:57:01.795Z,15.93
2019-06-15T00:59:30.474Z,16.27
2019-06-15T01:01:58.839Z,16.17
2019-06-15T01:04:27.464Z,14.37
2019-06-15T01:06:56.046Z,14.13
2019-06-15T01:09:26.210Z,14.93
2019-06-15T01:11:54.823Z,14.70
2019-06-15T01:14:23.278Z,15.33
2019-06-15T01:16:51.754Z,20.77
2019-06-15T01:19:20.336Z,15.93
2019-06-15T01:21:48.922Z,16.37
2019-06-15T01:24:17.500Z,15.37
2019-06-15T01:26:47.676Z,15.43
2019-06-15T01:29:16.340Z,16.40
2019-06-15T01:31:44.910Z,15.43
2019-06-15T01:34:13.599Z,16.77
2019-06-15T01:36:42.266Z,14.27
2019-06-15T01:39:11.155Z,15.80
2019-06-15T01:41:40.037Z,14.20
2019-06-15T01:44:08.784Z,14.77
2019-06-15T01:46:37.444Z,15.57
2019-06-15T01:49:06.022Z,16.27
2019-06-15T01:51:34.582Z,15.27
2019-06-15T01:54:03.410Z,15.80
2019-06-15T01:56:33.300Z,14.90
2019-06-15T01:59:01.871Z,15.60
2019-06-15T02:01:30.453Z,15.73
2019-06-15T02:03:59.067Z,16.60
2019-06-15T02:06:27.544Z,16.77
2019-06-15T02:08:56.024Z,16.17
2019-06-15T02:11:24.710Z,14.73
2019-06-15T02:13:54.936Z,16.73
2019-06-15T02:16:23.535Z,16.53
2019-06-15T02:18:52.101Z,14.77
2019-06-15T02:21:20.885Z,16.00
2019-06-15T02:23:49.582Z,15.70
2019-06-15T02:26:18.254Z,17.83
2019-06-15T02:28:46.914Z,14.80
2019-06-15T02:31:15.687Z,16.80
2019-06-15T02:33:44.967Z,15.30
2019-06-15T02:36:14.438Z,15.80
2019-06-15T02:38:43.015Z,16.20
2019-06-15T02:41:11.499Z,16.80
2019-06-15T02:43:40.172Z,14.70
2019-06-15T02:46:08.750Z,16.40
2019-06-15T02:48:37.329Z,17.03
2019-06-15T02:51:05.858Z,15.30
2019-06-15T02:53:34.660Z,16.00
2019-06-15T02:56:03.654Z,16.37
2019-06-15T02:58:32.115Z,16.20
2019-06-15T03:01:05.856Z,15.00
2019-06-15T03:03:34.455Z,16.33
2019-06-15T03:06:03.197Z,14.87
2019-06-15T03:08:32.627Z,15.20
2019-06-15T03:11:01.009Z,17.00
2019-06-15T03:13:29.948Z,16.03
2019-06-15T03:15:58.328Z,16.00
2019-06-15T03:18:26.796Z,15.30
2019-06-15T03:20:55.466Z,17.53
2019-06-15T03:23:24.079Z,15.63
2019-06-15T03:26:04.563Z,16.93
2019-06-15T03:28:23.213Z,16.33
2019-06-15T03:30:51.776Z,16.83
2019-06-15T03:33:20.460Z,16.93
2019-06-15T03:35:49.027Z,17.10
2019-06-15T03:38:18.586Z,14.83
2019-06-15T03:40:47.246Z,15.90
2019-06-15T03:43:15.819Z,15.63
2019-06-15T03:45:44.430Z,16.50
2019-06-15T03:48:14.592Z,17.07
2019-06-15T03:50:43.163Z,15.27
2019-06-15T03:53:13.499Z,16.83
2019-06-15T03:55:44.074Z,17.97
2019-06-15T03:58:14.965Z,15.00
2019-06-15T04:00:46.731Z,15.93
2019-06-15T04:03:15.621Z,15.93
2019-06-15T04:05:44.362Z,17.20
2019-06-15T04:08:12.940Z,16.03
2019-06-15T04:10:41.676Z,16.33
2019-06-15T04:13:10.256Z,15.47
2019-06-15T04:15:40.509Z,16.30
2019-06-15T04:18:08.888Z,18.10
2019-06-15T04:20:37.356Z,16.23
2019-06-15T04:23:07.432Z,15.93
2019-06-15T04:25:37.889Z,16.07
2019-06-15T04:28:06.379Z,17.13
2019-06-15T04:30:34.844Z,16.80
2019-06-15T04:33:03.389Z,17.53
2019-06-15T04:35:32.388Z,17.60
2019-06-15T04:38:01.058Z,16.20
2019-06-15T04:40:29.741Z,15.53
2019-06-15T04:42:58.431Z,17.43
2019-06-15T04:45:27.408Z,15.33
2019-06-15T04:47:56.072Z,17.27
2019-06-15T04:50:26.256Z,16.33
2019-06-15T04:52:56.432Z,20.60
2019-06-15T04:55:25.120Z,17.43
2019-06-15T04:57:54.391Z,17.60
2019-06-15T05:00:23.085Z,19.07
2019-06-15T05:02:51.528Z,17.40
2019-06-15T05:05:20.076Z,18.30
2019-06-15T05:07:50.135Z,17.83
2019-06-15T05:10:18.715Z,16.70
2019-06-15T05:12:47.170Z,19.67
2019-06-15T05:15:16.678Z,17.07
2019-06-15T05:17:46.395Z,19.07
2019-06-15T05:20:15.528Z,18.90
2019-06-15T05:22:44.228Z,17.30
2019-06-15T05:25:12.910Z,17.83
2019-06-15T05:27:41.599Z,17.50
2019-06-15T05:30:11.478Z,18.63
2019-06-15T05:32:39.956Z,18.07
2019-06-15T05:35:08.839Z,18.77
2019-06-15T05:37:37.504Z,19.63
2019-06-15T05:40:06.475Z,18.20
2019-06-15T05:42:35.057Z,17.43
2019-06-15T05:45:05.095Z,18.53
2019-06-15T05:47:35.271Z,20.43
2019-06-15T05:50:04.781Z,16.47
2019-06-15T05:52:33.854Z,18.83
2019-06-15T05:55:03.442Z,19.93
2019-06-15T05:57:33.647Z,18.77
2019-06-15T06:00:03.514Z,17.77
2019-06-15T06:02:33.681Z,19.63
2019-06-15T06:05:02.413Z,20.03
2019-06-15T06:07:31.775Z,19.87
2019-06-15T06:10:01.551Z,20.13
2019-06-15T06:12:30.209Z,18.93
2019-06-15T06:14:58.628Z,19.67
2019-06-15T06:17:27.674Z,20.50
2019-06-15T06:19:56.336Z,19.37
2019-06-15T06:22:25.138Z,22.23
2019-06-15T06:24:53.632Z,24.47
2019-06-15T06:27:35.877Z,21.93
2019-06-15T06:29:53.106Z,19.90
2019-06-15T06:32:23.016Z,18.43
2019-06-15T06:34:51.610Z,19.00
2019-06-15T06:37:20.988Z,17.17
2019-06-15T06:39:49.488Z,18.73
2019-06-15T06:42:18.177Z,19.63
2019-06-15T06:44:46.659Z,19.60
2019-06-15T06:47:15.134Z,19.17
2019-06-15T06:49:43.621Z,19.60
2019-06-15T06:52:12.095Z,17.57
2019-06-15T06:54:42.357Z,18.40
2019-06-15T06:57:11.624Z,18.90
2019-06-15T06:59:40.300Z,18.90
2019-06-15T07:02:08.786Z,19.83
2019-06-15T07:04:37.997Z,19.23
2019-06-15T07:07:15.741Z,19.53
2019-06-15T07:09:44.517Z,17.47
2019-06-15T07:12:13.012Z,17.23
2019-06-15T07:14:41.747Z,20.17
2019-06-15T07:17:10.445Z,17.97
2019-06-15T07:19:39.101Z,18.73
2019-06-15T07:22:08.183Z,19.90
2019-06-15T07:24:36.999Z,18.77
2019-06-15T07:27:05.784Z,18.00
2019-06-15T07:29:34.727Z,18.83
2019-06-15T07:32:03.915Z,18.23
2019-06-15T07:34:32.790Z,19.23
2019-06-15T07:37:01.756Z,16.50
2019-06-15T07:39:30.607Z,17.77
2019-06-15T07:41:59.297Z,17.23
2019-06-15T07:44:27.904Z,18.87
2019-06-15T07:46:56.471Z,18.50
2019-06-15T07:49:25.266Z,16.77
2019-06-15T07:51:53.828Z,18.83
2019-06-15T07:54:22.833Z,18.27
2019-06-15T07:56:51.738Z,16.03
2019-06-15T07:59:20.313Z,17.00
2019-06-15T08:01:49.581Z,17.20
2019-06-15T08:04:20.779Z,16.17
2019-06-15T08:06:49.387Z,17.13
2019-06-15T08:09:18.568Z,17.73
2019-06-15T08:11:47.521Z,16.93
2019-06-15T08:14:16.546Z,18.07
2019-06-15T08:16:45.310Z,15.57
2019-06-15T08:19:14.038Z,18.30
2019-06-15T08:21:44.339Z,16.03
2019-06-15T08:24:13.159Z,16.57
2019-06-15T08:26:41.892Z,17.50
2019-06-15T08:29:10.767Z,16.63
2019-06-15T08:31:39.780Z,16.97
2019-06-15T08:34:08.375Z,17.73
2019-06-15T08:36:37.088Z,18.90
2019-06-15T08:39:06.178Z,18.50
2019-06-15T08:41:35.094Z,19.00
2019-06-15T08:44:03.825Z,17.97
2019-06-15T08:46:32.543Z,20.07
2019-06-15T08:49:01.233Z,18.37
2019-06-15T08:51:30.387Z,17.83
2019-06-15T08:53:59.184Z,18.17
2019-06-15T08:56:29.393Z,18.90
2019-06-15T08:58:58.085Z,19.57
2019-06-15T09:01:28.320Z,18.93
2019-06-15T09:03:57.324Z,16.70
2019-06-15T09:06:26.003Z,19.00
2019-06-15T09:08:54.722Z,18.10
2019-06-15T09:11:23.302Z,17.77
2019-06-15T09:13:53.327Z,18.20
2019-06-15T09:16:21.826Z,17.03
2019-06-15T09:18:50.439Z,16.23
2019-06-15T09:21:19.236Z,14.83
2019-06-15T09:23:48.256Z,15.80
2019-06-15T09:26:16.922Z,17.87
2019-06-15T09:28:45.521Z,18.77
2019-06-15T09:31:14.228Z,20.53
2019-06-15T09:33:42.663Z,18.20
2019-06-15T09:36:11.589Z,16.40
2019-06-15T09:38:40.274Z,18.13
2019-06-15T09:41:09.161Z,23.40
2019-06-15T09:43:37.912Z,20.40
2019-06-15T09:46:07.090Z,15.17
2019-06-15T09:48:35.856Z,15.13
2019-06-15T09:51:04.473Z,16.43
2019-06-15T09:53:34.987Z,15.70
2019-06-15T09:56:03.888Z,18.13
2019-06-15T09:58:32.537Z,16.17
2019-06-15T10:01:01.296Z,13.67
2019-06-15T10:03:29.725Z,13.37
2019-06-15T10:05:58.104Z,14.17
2019-06-15T10:08:27.001Z,15.17
2019-06-15T10:10:55.679Z,13.20
2019-06-15T10:13:24.330Z,13.57
2019-06-15T10:15:52.962Z,13.20
2019-06-15T10:18:21.542Z,15.20
2019-06-15T10:20:51.789Z,11.47
2019-06-15T10:23:23.027Z,13.90
2019-06-15T10:25:54.205Z,12.80
2019-06-15T10:28:22.222Z,11.70
2019-06-15T10:30:51.018Z,12.27
2019-06-15T10:33:19.495Z,13.43
2019-06-15T10:35:48.391Z,14.47
2019-06-15T10:38:17.260Z,15.17
2019-06-15T10:40:45.860Z,15.57
2019-06-15T10:43:14.445Z,15.67
2019-06-15T10:45:43.433Z,14.93
2019-06-15T10:48:11.918Z,14.80
2019-06-15T10:50:40.908Z,15.33
2019-06-15T10:53:09.610Z,14.07
2019-06-15T10:55:38.423Z,14.77
2019-06-15T10:58:06.828Z,15.00
2019-06-15T11:00:37.012Z,15.33
2019-06-15T11:03:05.497Z,13.97
2019-06-15T11:05:37.002Z,15.23
2019-06-15T11:08:05.397Z,13.87
2019-06-15T11:10:56.026Z,13.67
2019-06-15T11:13:24.532Z,13.37
2019-06-15T11:15:53.117Z,14.77
2019-06-15T11:18:22.314Z,15.00
2019-06-15T11:20:50.684Z,15.13
2019-06-15T11:23:22.101Z,13.90
2019-06-15T11:25:51.128Z,14.47
2019-06-15T11:28:19.736Z,14.40
2019-06-15T11:30:48.508Z,15.43
2019-06-15T11:33:17.055Z,15.67
2019-06-15T11:35:45.746Z,14.93
2019-06-15T11:38:14.335Z,14.50
2019-06-15T11:40:42.809Z,14.90
2019-06-15T11:43:12.705Z,13.50
2019-06-15T11:45:41.153Z,13.90
2019-06-15T11:48:09.708Z,14.00
2019-06-15T11:50:38.446Z,15.40
2019-06-15T11:53:07.471Z,15.77
2019-06-15T11:55:39.496Z,14.20
2019-06-15T11:58:06.293Z,14.93
2019-06-15T12:00:39.031Z,14.80
2019-06-15T12:03:07.427Z,16.80
2019-06-15T12:05:35.949Z,16.83
2019-06-15T12:08:04.947Z,17.83
2019-06-15T12:10:33.340Z,16.93
2019-06-15T12:13:01.913Z,16.43
2019-06-15T12:15:30.516Z,18.43
2019-06-15T12:17:58.895Z,17.73
2019-06-15T12:20:27.478Z,16.40
2019-06-15T12:22:56.068Z,17.23
2019-06-15T12:25:26.311Z,17.90
2019-06-15T12:27:54.695Z,17.00
2019-06-15T12:30:45.894Z,19.33
2019-06-15T12:33:07.170Z,21.83
2019-06-15T12:35:36.026Z,17.00
2019-06-15T12:38:04.955Z,19.37
2019-06-15T12:40:33.556Z,18.40
2019-06-15T12:43:02.465Z,17.70
2019-06-15T12:45:31.067Z,18.23
2019-06-15T12:47:59.726Z,18.10
2019-06-15T12:50:28.142Z,19.23
2019-06-15T12:52:56.635Z,19.63
2019-06-15T12:55:25.195Z,18.30
2019-06-15T12:57:53.694Z,18.63
2019-06-15T13:00:31.181Z,19.43
2019-06-15T13:02:59.568Z,19.70
2019-06-15T13:05:28.130Z,18.40
2019-06-15T13:07:56.722Z,18.77
2019-06-15T13:10:26.889Z,18.63
2019-06-15T13:12:55.283Z,18.40
2019-06-15T13:15:24.808Z,16.20
2019-06-15T13:17:53.186Z,17.00
2019-06-15T13:20:22.171Z,15.73
2019-06-15T13:22:50.541Z,15.40
2019-06-15T13:25:19.264Z,16.23
2019-06-15T13:27:47.652Z,15.60
2019-06-15T13:30:19.634Z,17.37
2019-06-15T13:32:48.408Z,17.07
2019-06-15T13:35:17.193Z,16.43
2019-06-15T13:37:45.633Z,15.63
2019-06-15T13:40:14.005Z,15.17
2019-06-15T13:42:44.223Z,14.53
2019-06-15T13:45:14.639Z,13.73
2019-06-15T13:47:43.032Z,13.03
2019-06-15T13:50:12.388Z,12.73
2019-06-15T13:52:41.599Z,13.03
2019-06-15T13:55:10.254Z,12.70
2019-06-15T13:57:38.645Z,12.60
2019-06-15T14:00:07.947Z,12.33
2019-06-15T14:02:38.173Z,12.37
2019-06-15T14:05:08.042Z,12.37
2019-06-15T14:07:36.402Z,11.67
2019-06-15T14:10:05.896Z,11.60
2019-06-15T14:12:35.078Z,13.03
2019-06-15T14:15:04.391Z,12.90
2019-06-15T14:17:32.953Z,12.60
2019-06-15T14:20:01.544Z,14.73
2019-06-15T14:22:31.715Z,12.27
2019-06-15T14:25:00.391Z,10.70
2019-06-15T14:27:28.840Z,11.60
2019-06-15T14:29:57.518Z,10.83
2019-06-15T14:32:26.021Z,11.20
2019-06-15T14:34:54.584Z,12.80
2019-06-15T14:37:23.069Z,12.37
2019-06-15T14:39:51.444Z,12.97
2019-06-15T14:42:19.917Z,9.57
2019-06-15T14:44:48.393Z,10.33
2019-06-15T14:47:16.878Z,10.93
2019-06-15T14:49:45.260Z,11.10
2019-06-15T14:52:13.643Z,10.00
2019-06-15T14:54:42.170Z,10.43
2019-06-15T14:57:11.882Z,11.50
2019-06-15T14:59:52.039Z,13.80
2019-06-15T15:02:14.153Z,10.57
2019-06-15T15:04:41.274Z,10.57
2019-06-15T15:07:09.754Z,11.17
2019-06-15T15:09:38.943Z,10.37
2019-06-15T15:12:07.325Z,10.00
2019-06-15T15:14:36.535Z,11.03
2019-06-15T15:17:06.530Z,9.13
2019-06-15T15:19:36.075Z,9.77
2019-06-15T15:22:04.633Z,10.47
2019-06-15T15:24:33.330Z,11.20
2019-06-15T15:27:01.804Z,10.80
2019-06-15T15:29:30.270Z,9.73
2019-06-15T15:31:58.674Z,9.13
2019-06-15T15:34:27.243Z,11.70
2019-06-15T15:36:56.778Z,11.90
2019-06-15T15:39:27.405Z,14.73
2019-06-15T15:41:56.297Z,9.03
2019-06-15T15:44:26.929Z,8.80
2019-06-15T15:46:56.964Z,9.73
2019-06-15T15:49:26.755Z,10.10
2019-06-15T15:51:56.571Z,11.60
2019-06-15T15:54:25.374Z,9.90
2019-06-15T15:56:55.817Z,10.53
2019-06-15T15:59:24.151Z,9.37
2019-06-15T16:01:52.644Z,10.43
2019-06-15T16:04:21.214Z,9.70
2019-06-15T16:06:49.606Z,9.73
2019-06-15T16:09:18.183Z,9.27
2019-06-15T16:11:46.866Z,10.47
2019-06-15T16:14:16.464Z,9.83
2019-06-15T16:16:46.748Z,9.37
2019-06-15T16:19:17.014Z,9.50
2019-06-15T16:21:47.082Z,9.30
2019-06-15T16:24:16.814Z,8.93
2019-06-15T16:26:46.758Z,10.50
2019-06-15T16:29:16.171Z,10.67
2019-06-15T16:31:46.033Z,10.57
2019-06-15T16:34:16.079Z,8.40
2019-06-15T16:36:46.995Z,10.40
2019-06-15T16:39:16.722Z,9.77
2019-06-15T16:41:46.926Z,8.53
2019-06-15T16:44:17.396Z,12.47
2019-06-15T16:46:45.973Z,10.63
2019-06-15T16:49:18.368Z,9.23
2019-06-15T16:51:46.675Z,14.00
2019-06-15T16:54:16.636Z,10.43
2019-06-15T16:56:46.595Z,12.03
2019-06-15T16:59:15.551Z,9.67
2019-06-15T17:01:44.092Z,9.37
2019-06-15T17:04:13.069Z,11.10
2019-06-15T17:06:41.988Z,16.30
2019-06-15T17:09:11.094Z,8.90
2019-06-15T17:11:39.603Z,10.87
2019-06-15T17:14:08.220Z,12.10
2019-06-15T17:16:36.930Z,11.07
2019-06-15T17:19:07.077Z,9.57
2019-06-15T17:21:37.260Z,8.80
2019-06-15T17:24:06.784Z,10.10
2019-06-15T17:26:36.488Z,15.37
2019-06-15T17:29:07.312Z,9.70
2019-06-15T17:31:37.495Z,14.30
2019-06-15T17:34:07.297Z,10.47
2019-06-15T17:36:36.763Z,10.33
2019-06-15T17:39:06.756Z,10.87
2019-06-15T17:41:36.622Z,9.60
2019-06-15T17:44:06.083Z,14.87
2019-06-15T17:46:35.148Z,9.07
2019-06-15T17:49:03.723Z,11.53
2019-06-15T17:51:32.259Z,9.87
2019-06-15T17:54:00.743Z,12.20
2019-06-15T17:56:29.191Z,12.90
2019-06-15T17:58:57.598Z,11.17
2019-06-15T18:01:26.528Z,13.80
2019-06-15T18:03:58.149Z,10.00
2019-06-15T18:06:26.875Z,10.20
2019-06-15T18:08:55.539Z,10.13
2019-06-15T18:11:26.240Z,11.07
2019-06-15T18:13:56.710Z,10.13
2019-06-15T18:16:28.023Z,9.50
2019-06-15T18:18:55.763Z,10.63
2019-06-15T18:21:26.684Z,13.67
2019-06-15T18:23:57.125Z,13.87
2019-06-15T18:26:26.807Z,10.27
2019-06-15T18:28:55.168Z,9.73
2019-06-15T18:31:26.974Z,10.23
2019-06-15T18:34:08.370Z,12.90
2019-06-15T18:36:26.724Z,12.63
2019-06-15T18:38:57.434Z,10.33
2019-06-15T18:41:26.571Z,11.67
2019-06-15T18:43:56.511Z,10.37
2019-06-15T18:46:27.335Z,10.53
2019-06-15T18:48:55.545Z,10.23
2019-06-15T18:51:26.977Z,10.73
2019-06-15T18:53:56.167Z,17.20
2019-06-15T18:56:27.084Z,13.43
2019-06-15T18:58:56.342Z,11.73
2019-06-15T19:01:27.048Z,14.40
2019-06-15T19:03:56.463Z,11.17
2019-06-15T19:06:26.386Z,11.57
2019-06-15T19:08:57.279Z,11.10
2019-06-15T19:11:27.351Z,12.40
2019-06-15T19:13:56.405Z,17.23
2019-06-15T19:16:25.300Z,15.97
2019-06-15T19:18:53.906Z,11.80
2019-06-15T19:21:22.601Z,11.20
2019-06-15T19:23:56.294Z,12.27
2019-06-15T19:26:26.755Z,12.33
2019-06-15T19:28:55.953Z,11.17
2019-06-15T19:31:27.766Z,11.23
2019-06-15T19:33:56.826Z,13.17
2019-06-15T19:36:25.658Z,11.90
2019-06-15T19:38:57.183Z,11.83
2019-06-15T19:41:26.620Z,12.40
2019-06-15T19:43:57.086Z,11.30
2019-06-15T19:46:26.099Z,13.00
2019-06-15T19:48:56.059Z,11.27
2019-06-15T19:51:26.465Z,13.60
2019-06-15T19:53:56.593Z,12.10
2019-06-15T19:56:26.062Z,12.83
2019-06-15T19:58:56.531Z,15.30
2019-06-15T20:01:26.779Z,12.60
2019-06-15T20:03:57.501Z,13.60
2019-06-15T20:06:26.183Z,12.57
2019-06-15T20:08:56.288Z,13.10
2019-06-15T20:11:26.997Z,13.33
2019-06-15T20:13:56.256Z,11.50
2019-06-15T20:16:25.938Z,12.30
2019-06-15T20:18:56.287Z,11.97
2019-06-15T20:21:24.872Z,12.63
2019-06-15T20:23:56.717Z,12.23
2019-06-15T20:26:26.825Z,12.30
2019-06-15T20:28:56.459Z,12.57
2019-06-15T20:31:24.994Z,14.03
2019-06-15T20:33:53.537Z,12.50
2019-06-15T20:36:22.076Z,13.40
2019-06-15T20:38:50.444Z,16.40
2019-06-15T20:41:18.817Z,18.33
2019-06-15T20:43:47.602Z,12.73
2019-06-15T20:46:17.221Z,15.57
2019-06-15T20:48:47.095Z,14.77
2019-06-15T20:51:17.325Z,12.10
2019-06-15T20:53:53.644Z,12.93
2019-06-15T20:56:23.119Z,16.33
2019-06-15T20:58:51.548Z,13.10
2019-06-15T21:01:19.914Z,12.53
2019-06-15T21:03:48.433Z,16.03
2019-06-15T21:06:17.011Z,13.10
2019-06-15T21:08:47.005Z,13.00
2019-06-15T21:11:17.059Z,12.33
2019-06-15T21:13:46.884Z,13.47
2019-06-15T21:16:15.416Z,14.07
2019-06-15T21:18:46.444Z,14.20
2019-06-15T21:21:16.004Z,13.03
2019-06-15T21:23:50.478Z,13.60
2019-06-15T21:26:22.373Z,13.00
2019-06-15T21:28:50.849Z,14.63
2019-06-15T21:31:19.221Z,14.57
2019-06-15T21:33:47.803Z,13.97
2019-06-15T21:36:16.197Z,12.60
2019-06-15T21:38:46.656Z,13.30
2019-06-15T21:41:16.688Z,13.60
2019-06-15T21:43:47.181Z,13.20
2019-06-15T21:46:16.826Z,16.33
2019-06-15T21:48:46.934Z,15.47
2019-06-15T21:51:16.550Z,19.97
2019-06-15T21:53:46.939Z,15.20
2019-06-15T21:56:19.260Z,15.53
2019-06-15T21:58:47.733Z,15.27
2019-06-15T22:01:39.785Z,14.20
2019-06-15T22:04:08.282Z,13.93
2019-06-15T22:06:37.233Z,17.73
2019-06-15T22:09:13.828Z,13.70
2019-06-15T22:11:46.936Z,14.63
2019-06-15T22:14:17.178Z,16.40
2019-06-15T22:16:46.107Z,15.27
2019-06-15T22:19:16.936Z,14.70
2019-06-15T22:21:47.726Z,14.80
2019-06-15T22:24:16.301Z,14.97
2019-06-15T22:26:46.749Z,14.33
2019-06-15T22:29:16.770Z,13.73
2019-06-15T22:31:46.682Z,13.67
2019-06-15T22:34:16.255Z,13.43
2019-06-15T22:36:47.916Z,16.23
2019-06-15T22:39:17.167Z,13.67
2019-06-15T22:41:47.010Z,13.50
2019-06-15T22:44:16.905Z,14.63
2019-06-15T22:46:46.487Z,13.87
2019-06-15T22:49:16.137Z,14.83
2019-06-15T22:51:45.896Z,13.07
2019-06-15T22:54:16.552Z,14.80
2019-06-15T22:56:46.621Z,14.37
2019-06-15T22:59:16.927Z,12.43
2019-06-15T23:01:46.074Z,13.60
2019-06-15T23:04:17.071Z,13.90
2019-06-15T23:06:48.051Z,13.13
2019-06-15T23:09:16.704Z,12.60
2019-06-15T23:11:46.799Z,12.67
2019-06-15T23:14:17.204Z,13.23
2019-06-15T23:16:47.444Z,13.23
2019-06-15T23:19:17.231Z,12.00
2019-06-15T23:21:46.312Z,13.93
2019-06-15T23:24:16.559Z,12.73
2019-06-15T23:26:46.169Z,13.33
2019-06-15T23:29:16.461Z,13.50
2019-06-15T23:31:46.047Z,13.20
2019-06-15T23:34:16.339Z,13.50
2019-06-15T23:36:56.164Z,14.17
2019-06-15T23:39:17.631Z,11.87
2019-06-15T23:41:46.905Z,16.03
2019-06-15T23:44:16.151Z,12.70
2019-06-15T23:46:46.858Z,12.40
2019-06-15T23:49:16.394Z,12.97
2019-06-15T23:51:46.670Z,12.53
2019-06-15T23:54:15.444Z,13.97
2019-06-15T23:56:46.055Z,13.67
2019-06-15T23:59:17.918Z,13.10
